createdAt,value
2023-03-29T00:02:33.664Z,20.43
2023-03-29T00:05:43.803Z,20.43
2023-03-29T00:08:46.548Z,20.46
2023-03-29T00:11:49.286Z,20.45
2023-03-29T00:14:53.599Z,20.43
2023-03-29T00:17:57.445Z,20.46
2023-03-29T00:21:01.885Z,20.45
2023-03-29T00:24:09.851Z,20.48
2023-03-29T00:27:12.932Z,20.43
2023-03-29T00:30:16.049Z,20.42
2023-03-29T00:33:20.911Z,20.42
2023-03-29T00:36:25.025Z,20.38
2023-03-29T00:39:28.294Z,20.34
2023-03-29T00:42:31.062Z,20.35
2023-03-29T00:45:36.044Z,20.33
2023-03-29T00:48:39.448Z,20.33
2023-03-29T00:51:43.970Z,20.33
2023-03-29T00:54:48.736Z,20.33
2023-03-29T00:57:52.510Z,20.31
2023-03-29T01:01:02.138Z,20.31
2023-03-29T01:04:08.565Z,20.35
2023-03-29T01:07:18.013Z,20.36
2023-03-29T01:10:22.798Z,20.36
2023-03-29T01:13:28.272Z,20.37
2023-03-29T01:16:33.127Z,20.34
2023-03-29T01:19:41.812Z,20.34
2023-03-29T01:22:54.752Z,20.33
2023-03-29T01:26:03.041Z,20.32
2023-03-29T01:29:14.034Z,20.32
2023-03-29T01:32:19.714Z,20.34
2023-03-29T01:35:23.752Z,20.33
2023-03-29T01:38:32.146Z,20.34
2023-03-29T01:41:37.771Z,20.22
2023-03-29T01:44:49.830Z,20.34
2023-03-29T01:47:56.979Z,20.36
2023-03-29T01:51:04.471Z,20.22
2023-03-29T01:54:09.528Z,20.19
2023-03-29T01:57:15.790Z,20.15
2023-03-29T02:00:25.872Z,20.21
2023-03-29T02:03:31.882Z,20.14
2023-03-29T02:06:36.092Z,20.13
2023-03-29T02:09:39.845Z,20.14
2023-03-29T02:12:42.706Z,20.15
2023-03-29T02:15:49.378Z,20.19
2023-03-29T02:18:53.394Z,20.17
2023-03-29T02:22:01.600Z,20.19
2023-03-29T02:25:07.436Z,20.20
2023-03-29T02:28:10.605Z,20.23
2023-03-29T02:31:17.392Z,20.21
2023-03-29T02:34:22.562Z,20.19
2023-03-29T02:37:26.787Z,20.21
2023-03-29T02:40:29.968Z,20.20
2023-03-29T02:43:37.953Z,20.19
2023-03-29T02:46:42.975Z,20.16
2023-03-29T02:49:51.973Z,20.19
2023-03-29T02:52:56.885Z,20.18
2023-03-29T02:56:02.344Z,20.18
2023-03-29T02:59:08.028Z,20.14
2023-03-29T03:02:13.791Z,20.07
2023-03-29T03:05:17.619Z,20.05
2023-03-29T03:08:20.620Z,20.01
2023-03-29T03:11:24.068Z,19.99
2023-03-29T03:14:28.342Z,19.95
2023-03-29T03:17:33.352Z,20.02
2023-03-29T03:20:36.242Z,19.99
2023-03-29T03:23:46.431Z,19.97
2023-03-29T03:26:50.122Z,20.01
2023-03-29T03:29:55.766Z,20.04
2023-03-29T03:32:59.952Z,20.03
2023-03-29T03:36:07.689Z,20.06
2023-03-29T03:39:11.882Z,20.01
2023-03-29T03:42:14.689Z,20.04
2023-03-29T03:45:17.513Z,20.04
2023-03-29T03:48:21.649Z,20.02
2023-03-29T03:51:27.212Z,20.04
2023-03-29T03:54:30.109Z,20.01
2023-03-29T03:57:33.387Z,20.01
2023-03-29T04:00:36.204Z,20.03
2023-03-29T04:03:41.221Z,20.02
2023-03-29T04:06:45.334Z,20.02
2023-03-29T04:09:53.068Z,20.03
2023-03-29T04:12:56.765Z,20.00
2023-03-29T04:16:01.750Z,19.94
2023-03-29T04:19:06.244Z,19.88
2023-03-29T04:22:09.119Z,19.92
2023-03-29T04:25:11.932Z,19.92
2023-03-29T04:28:15.724Z,19.83
2023-03-29T04:31:18.552Z,19.91
2023-03-29T04:34:22.680Z,19.86
2023-03-29T04:37:25.379Z,19.84
2023-03-29T04:40:29.134Z,19.89
2023-03-29T04:43:33.547Z,19.91
2023-03-29T04:46:40.405Z,19.87
2023-03-29T04:49:46.560Z,19.90
2023-03-29T04:52:50.912Z,19.91
2023-03-29T04:56:00.309Z,19.88
2023-03-29T04:59:03.055Z,19.92
2023-03-29T05:02:05.853Z,19.91
2023-03-29T05:05:10.592Z,19.89
2023-03-29T05:08:13.372Z,19.91
2023-03-29T05:11:16.733Z,19.91
2023-03-29T05:14:19.664Z,19.89
2023-03-29T05:17:22.765Z,19.86
2023-03-29T05:20:26.914Z,19.89
2023-03-29T05:23:29.988Z,19.83
2023-03-29T05:26:32.764Z,19.83
2023-03-29T05:29:35.542Z,19.80
2023-03-29T05:32:43.970Z,19.75
2023-03-29T05:35:48.460Z,19.78
2023-03-29T05:38:51.599Z,19.77
2023-03-29T05:41:54.986Z,19.74
2023-03-29T05:44:58.788Z,19.78
2023-03-29T05:48:02.045Z,19.77
2023-03-29T05:51:06.643Z,19.77
2023-03-29T05:54:11.653Z,19.80
2023-03-29T05:57:14.508Z,19.77
2023-03-29T06:00:25.888Z,19.80
2023-03-29T06:03:31.607Z,19.80
2023-03-29T06:06:36.907Z,19.81
2023-03-29T06:09:42.663Z,19.83
2023-03-29T06:12:45.642Z,19.81
2023-03-29T06:15:48.428Z,19.78
2023-03-29T06:18:55.336Z,19.80
2023-03-29T06:21:59.500Z,19.78
2023-03-29T06:25:02.593Z,19.80
2023-03-29T06:28:06.126Z,19.79
2023-03-29T06:31:10.229Z,19.75
2023-03-29T06:34:13.876Z,19.75
2023-03-29T06:37:24.305Z,19.70
2023-03-29T06:40:27.469Z,19.74
2023-03-29T06:43:34.899Z,19.74
2023-03-29T06:46:39.669Z,19.75
2023-03-29T06:49:42.508Z,19.71
2023-03-29T06:52:47.121Z,19.73
2023-03-29T06:55:50.828Z,19.69
2023-03-29T06:58:57.946Z,19.72
2023-03-29T07:02:00.785Z,19.68
2023-03-29T07:05:07.069Z,19.71
2023-03-29T07:08:15.421Z,19.73
2023-03-29T07:11:19.002Z,19.71
2023-03-29T07:14:21.732Z,19.73
2023-03-29T07:17:24.571Z,19.74
2023-03-29T07:20:27.675Z,19.72
2023-03-29T07:23:34.745Z,19.68
2023-03-29T07:26:46.125Z,19.75
2023-03-29T07:29:56.987Z,19.74
2023-03-29T07:33:02.252Z,19.70
2023-03-29T07:36:06.162Z,19.66
2023-03-29T07:39:12.916Z,19.70
2023-03-29T07:42:15.723Z,19.71
2023-03-29T07:45:20.532Z,19.69
2023-03-29T07:48:29.887Z,19.64
2023-03-29T07:51:32.699Z,19.65
2023-03-29T07:54:38.241Z,19.66
2023-03-29T07:57:43.799Z,19.65
2023-03-29T08:00:49.253Z,19.62
2023-03-29T08:03:52.338Z,19.62
2023-03-29T08:06:55.367Z,19.64
2023-03-29T08:09:59.561Z,19.58
2023-03-29T08:13:05.044Z,19.60
2023-03-29T08:16:10.253Z,19.63
2023-03-29T08:19:14.223Z,19.64
2023-03-29T08:22:17.029Z,19.66
2023-03-29T08:25:24.214Z,19.64
2023-03-29T08:28:28.266Z,19.65
2023-03-29T08:31:36.717Z,19.65
2023-03-29T08:34:39.533Z,19.62
2023-03-29T08:37:42.362Z,19.61
2023-03-29T08:40:48.903Z,19.65
2023-03-29T08:43:58.247Z,19.62
2023-03-29T08:47:07.590Z,19.61
2023-03-29T08:50:17.595Z,19.59
2023-03-29T08:53:22.476Z,19.57
2023-03-29T08:56:28.238Z,19.58
2023-03-29T08:59:34.758Z,19.51
2023-03-29T09:02:38.007Z,19.51
2023-03-29T09:05:45.637Z,19.52
2023-03-29T09:08:49.174Z,19.51
2023-03-29T09:12:06.142Z,19.45
2023-03-29T09:15:12.742Z,19.45
2023-03-29T09:18:21.330Z,19.48
2023-03-29T09:21:29.375Z,19.44
2023-03-29T09:24:45.552Z,19.45
2023-03-29T09:27:55.202Z,19.48
2023-03-29T09:31:03.915Z,19.47
2023-03-29T09:34:13.648Z,19.48
2023-03-29T09:37:22.686Z,19.48
2023-03-29T09:40:27.775Z,19.52
2023-03-29T09:43:33.361Z,19.47
2023-03-29T09:46:39.378Z,19.46
2023-03-29T09:49:44.677Z,19.47
2023-03-29T09:52:47.947Z,19.47
2023-03-29T09:55:52.019Z,19.42
2023-03-29T09:58:56.551Z,19.44
2023-03-29T10:02:06.639Z,19.46
2023-03-29T10:05:10.381Z,19.42
2023-03-29T10:08:18.224Z,19.44
2023-03-29T10:11:24.317Z,19.44
2023-03-29T10:14:33.464Z,19.48
2023-03-29T10:17:40.788Z,19.49
2023-03-29T10:20:43.615Z,19.48
2023-03-29T10:23:48.126Z,19.36
2023-03-29T10:26:55.718Z,19.27
2023-03-29T10:30:01.334Z,19.16
2023-03-29T10:36:18.661Z,19.18
2023-03-29T10:39:21.749Z,19.25
2023-03-29T10:42:25.556Z,19.04
2023-03-29T10:45:31.957Z,18.96
2023-03-29T10:48:36.080Z,19.01
2023-03-29T10:51:38.852Z,18.96
2023-03-29T10:54:42.081Z,18.95
2023-03-29T10:57:51.159Z,18.85
2023-03-29T11:00:59.685Z,18.97
2023-03-29T11:04:09.372Z,18.87
2023-03-29T11:07:27.957Z,18.84
2023-03-29T11:10:38.540Z,18.83
2023-03-29T11:13:46.464Z,18.80
2023-03-29T11:16:54.637Z,19.10
2023-03-29T11:20:06.929Z,19.08
2023-03-29T11:23:18.900Z,19.15
2023-03-29T11:26:25.784Z,19.14
2023-03-29T11:29:32.004Z,19.17
2023-03-29T11:32:42.128Z,19.19
2023-03-29T11:35:56.163Z,19.18
2023-03-29T11:39:05.505Z,19.16
2023-03-29T11:42:15.569Z,19.19
2023-03-29T11:45:26.209Z,19.22
2023-03-29T11:48:32.743Z,19.22
2023-03-29T11:51:38.254Z,19.21
2023-03-29T11:54:44.853Z,19.24
2023-03-29T11:57:50.894Z,19.24
2023-03-29T12:00:57.000Z,19.24
2023-03-29T12:04:07.897Z,19.24
2023-03-29T12:07:15.766Z,19.24
2023-03-29T12:10:22.007Z,19.25
2023-03-29T12:13:27.492Z,19.26
2023-03-29T12:16:33.173Z,19.23
2023-03-29T12:19:43.743Z,19.24
2023-03-29T12:22:51.394Z,19.22
2023-03-29T12:25:58.316Z,19.25
2023-03-29T12:29:08.894Z,19.23
2023-03-29T12:32:22.809Z,19.22
2023-03-29T12:35:37.876Z,19.21
2023-03-29T12:38:41.944Z,19.21
2023-03-29T12:41:49.099Z,19.20
2023-03-29T12:44:54.518Z,19.21
2023-03-29T12:47:57.786Z,19.20
2023-03-29T12:51:03.368Z,19.18
2023-03-29T12:54:08.568Z,19.19
2023-03-29T12:57:20.715Z,19.21
2023-03-29T13:00:27.334Z,19.18
2023-03-29T13:03:35.865Z,19.19
2023-03-29T13:07:02.859Z,19.20
2023-03-29T13:10:08.805Z,19.22
2023-03-29T13:13:24.448Z,19.20
2023-03-29T13:16:30.849Z,19.16
2023-03-29T13:19:36.050Z,19.09
2023-03-29T13:22:44.765Z,19.15
2023-03-29T13:25:56.673Z,19.14
2023-03-29T13:29:20.513Z,19.15
2023-03-29T13:32:34.721Z,19.12
2023-03-29T13:35:44.142Z,19.13
2023-03-29T13:38:49.812Z,19.09
2023-03-29T13:41:53.619Z,19.08
2023-03-29T13:45:09.130Z,19.12
2023-03-29T13:48:22.923Z,19.06
2023-03-29T13:51:34.012Z,19.08
2023-03-29T13:54:43.179Z,19.10
2023-03-29T13:57:52.679Z,19.10
2023-03-29T14:01:09.186Z,19.09
2023-03-29T14:04:14.956Z,19.08
2023-03-29T14:07:20.022Z,19.10
2023-03-29T14:10:27.280Z,19.10
2023-03-29T14:13:30.466Z,19.06
2023-03-29T14:16:36.951Z,19.09
2023-03-29T14:19:42.522Z,19.14
2023-03-29T14:22:45.548Z,19.11
2023-03-29T14:25:50.718Z,19.09
2023-03-29T14:28:56.605Z,19.09
2023-03-29T14:32:09.167Z,19.09
2023-03-29T14:35:13.069Z,19.08
2023-03-29T14:38:16.560Z,19.09
2023-03-29T14:41:23.192Z,19.06
2023-03-29T14:44:28.468Z,19.06
2023-03-29T14:47:32.032Z,19.05
2023-03-29T14:50:35.104Z,19.05
2023-03-29T14:53:39.035Z,19.06
2023-03-29T14:56:43.443Z,19.05
2023-03-29T14:59:51.101Z,19.04
2023-03-29T15:03:03.708Z,19.01
2023-03-29T15:06:06.975Z,19.02
2023-03-29T15:09:17.051Z,19.00
2023-03-29T15:12:21.370Z,19.00
2023-03-29T15:15:25.818Z,18.98
2023-03-29T15:18:31.165Z,18.97
2023-03-29T15:21:35.002Z,18.95
2023-03-29T15:24:43.023Z,18.95
2023-03-29T15:27:50.021Z,18.93
2023-03-29T15:31:06.811Z,18.92
2023-03-29T15:34:12.632Z,18.92
2023-03-29T15:37:15.670Z,19.16
2023-03-29T15:40:20.252Z,18.97
2023-03-29T15:43:24.697Z,18.94
2023-03-29T15:46:27.583Z,18.93
2023-03-29T15:49:31.452Z,18.96
2023-03-29T15:52:34.387Z,18.95
2023-03-29T15:55:37.415Z,18.95
2023-03-29T15:58:44.222Z,18.95
2023-03-29T16:01:49.776Z,19.02
2023-03-29T16:04:53.672Z,19.14
2023-03-29T16:07:57.800Z,18.94
2023-03-29T16:11:00.532Z,18.88
2023-03-29T16:14:07.863Z,18.88
2023-03-29T16:17:10.967Z,18.87
2023-03-29T16:20:20.143Z,18.87
2023-03-29T16:23:22.946Z,18.82
2023-03-29T16:26:26.743Z,18.80
2023-03-29T16:29:32.339Z,18.76
2023-03-29T16:32:35.191Z,18.80
2023-03-29T16:35:40.156Z,18.79
2023-03-29T16:38:43.272Z,18.84
2023-03-29T16:41:48.537Z,18.86
2023-03-29T16:44:52.718Z,18.83
2023-03-29T16:47:56.197Z,18.88
2023-03-29T16:51:00.236Z,18.88
2023-03-29T16:54:03.089Z,18.86
2023-03-29T16:57:07.230Z,18.88
2023-03-29T17:00:14.255Z,18.86
2023-03-29T17:03:17.319Z,18.82
2023-03-29T17:06:20.424Z,18.82
2023-03-29T17:09:23.175Z,18.83
2023-03-29T17:12:25.963Z,18.79
2023-03-29T17:15:30.163Z,18.76
2023-03-29T17:18:33.075Z,18.74
2023-03-29T17:21:35.878Z,18.77
2023-03-29T17:24:38.636Z,18.73
2023-03-29T17:27:41.492Z,18.70
2023-03-29T17:30:47.207Z,18.75
2023-03-29T17:33:52.164Z,18.76
2023-03-29T17:36:56.927Z,18.76
2023-03-29T17:39:59.766Z,18.77
2023-03-29T17:43:03.721Z,18.74
2023-03-29T17:46:10.571Z,18.69
2023-03-29T17:49:14.489Z,18.74
2023-03-29T17:52:17.280Z,18.70
2023-03-29T17:55:21.108Z,18.74
2023-03-29T17:58:23.964Z,18.72
2023-03-29T18:01:29.472Z,18.65
2023-03-29T18:04:32.768Z,18.68
2023-03-29T18:07:35.602Z,18.68
2023-03-29T18:10:38.398Z,18.70
2023-03-29T18:13:41.447Z,18.69
2023-03-29T18:16:45.857Z,18.68
2023-03-29T18:19:48.651Z,18.66
2023-03-29T18:22:51.494Z,18.63
2023-03-29T18:25:59.434Z,18.62
2023-03-29T18:29:02.284Z,18.59
2023-03-29T18:32:07.223Z,18.62
2023-03-29T18:35:10.762Z,18.62
2023-03-29T18:38:14.396Z,18.66
2023-03-29T18:41:17.212Z,18.64
2023-03-29T18:44:21.871Z,18.66
2023-03-29T18:47:26.111Z,18.60
2023-03-29T18:50:28.986Z,18.57
2023-03-29T18:53:31.712Z,18.60
2023-03-29T18:56:35.503Z,18.65
2023-03-29T18:59:40.111Z,18.62
2023-03-29T19:02:44.358Z,18.64
2023-03-29T19:05:52.824Z,18.59
2023-03-29T19:08:58.298Z,18.64
2023-03-29T19:12:15.093Z,18.61
2023-03-29T19:15:18.045Z,18.61
2023-03-29T19:18:25.132Z,18.59
2023-03-29T19:21:31.715Z,18.56
2023-03-29T19:24:34.519Z,18.56
2023-03-29T19:27:37.403Z,18.55
2023-03-29T19:30:40.863Z,18.53
2023-03-29T19:33:44.957Z,18.49
2023-03-29T19:36:47.727Z,18.49
2023-03-29T19:39:54.670Z,18.50
2023-03-29T19:42:57.473Z,18.48
2023-03-29T19:46:06.004Z,18.49
2023-03-29T19:49:13.708Z,18.49
2023-03-29T19:52:17.637Z,18.47
2023-03-29T19:55:20.369Z,18.54
2023-03-29T19:58:23.587Z,18.46
2023-03-29T20:01:27.291Z,18.46
2023-03-29T20:04:33.349Z,18.43
2023-03-29T20:07:36.491Z,18.49
2023-03-29T20:10:40.837Z,18.48
2023-03-29T20:13:46.888Z,18.48
2023-03-29T20:16:50.812Z,18.53
2023-03-29T20:19:57.944Z,18.51
2023-03-29T20:23:04.767Z,18.55
2023-03-29T20:26:08.515Z,18.57
2023-03-29T20:29:11.344Z,18.54
2023-03-29T20:32:14.184Z,18.57
2023-03-29T20:35:20.817Z,18.65
2023-03-29T20:38:23.578Z,18.81
2023-03-29T20:41:26.591Z,18.66
2023-03-29T20:44:29.337Z,18.81
2023-03-29T20:47:32.256Z,18.70
2023-03-29T20:50:39.117Z,18.73
2023-03-29T20:53:52.638Z,18.68
2023-03-29T20:56:58.340Z,18.67
2023-03-29T21:00:03.016Z,18.71
2023-03-29T21:03:08.650Z,18.67
2023-03-29T21:06:15.218Z,18.88
2023-03-29T21:09:18.588Z,18.69
2023-03-29T21:12:21.708Z,18.66
2023-03-29T21:15:24.431Z,18.63
2023-03-29T21:18:27.373Z,18.58
2023-03-29T21:21:33.751Z,18.58
2023-03-29T21:24:40.953Z,18.55
2023-03-29T21:27:44.042Z,18.52
2023-03-29T21:30:48.848Z,18.50
2023-03-29T21:33:53.101Z,18.49
2023-03-29T21:36:57.225Z,18.47
2023-03-29T21:39:59.954Z,18.42
2023-03-29T21:43:04.129Z,18.44
2023-03-29T21:46:10.093Z,18.46
2023-03-29T21:49:12.994Z,18.49
2023-03-29T21:52:23.326Z,18.45
2023-03-29T21:55:29.032Z,18.46
2023-03-29T21:58:31.844Z,18.46
2023-03-29T22:01:34.644Z,18.45
2023-03-29T22:04:37.846Z,18.43
2023-03-29T22:07:42.107Z,18.42
2023-03-29T22:10:44.862Z,18.42
2023-03-29T22:13:47.781Z,18.40
2023-03-29T22:16:50.551Z,18.38
2023-03-29T22:19:55.890Z,18.41
2023-03-29T22:23:00.200Z,18.38
2023-03-29T22:26:05.959Z,18.33
2023-03-29T22:29:08.978Z,18.33
2023-03-29T22:32:11.800Z,18.27
2023-03-29T22:35:14.633Z,18.26
2023-03-29T22:38:18.759Z,18.22
2023-03-29T22:41:22.846Z,18.27
2023-03-29T22:44:25.647Z,18.23
2023-03-29T22:47:31.082Z,18.26
2023-03-29T22:50:33.907Z,18.21
2023-03-29T22:53:38.020Z,18.28
2023-03-29T22:56:40.805Z,18.27
2023-03-29T22:59:43.561Z,18.27
2023-03-29T23:02:46.513Z,18.27
2023-03-29T23:05:52.385Z,18.28
2023-03-29T23:08:56.549Z,18.24
2023-03-29T23:11:59.567Z,18.28
2023-03-29T23:15:03.272Z,18.28
2023-03-29T23:18:06.511Z,18.27
2023-03-29T23:21:17.908Z,18.26
2023-03-29T23:24:22.919Z,18.26
2023-03-29T23:27:28.849Z,18.27
2023-03-29T23:30:32.068Z,18.19
2023-03-29T23:33:36.239Z,18.20
2023-03-29T23:36:39.018Z,18.16
2023-03-29T23:39:43.144Z,18.17
2023-03-29T23:42:50.197Z,18.10
2023-03-29T23:45:58.152Z,18.18
2023-03-29T23:49:05.402Z,18.14
2023-03-29T23:52:08.208Z,18.15
2023-03-29T23:55:15.713Z,18.11
2023-03-29T23:58:18.464Z,18.02
